New Haven, Kentucky
Current Conditions -  °F | °C
As of 10:58 AM on Thursday 30 Oct 2014 (Local Time) from KFTK Reporting Station
Clear Clear  
Wind Chill:   Ceiling: Unl
Heat Index:   Visibility: 10mi
Dew Point:   Wind: 6mph
Humidity: 61%   Direction: 90°E
Pressure: 30.16"   Gusts: NA
Location:  37.66°N, 85.59°W
Report Text: KFTK 301458Z AUTO 09005KT 10SM CLR 09/02 A3016 RMK AO2 SLP218 T00870016 50002
Loading
Personal Weather Stations






























Interactive Weather Map
Tropical Storm Tracking
New forecast layout! Learn more

10-Day Weather Forecast

Advertisements
Track Severe Weather on mobile